183 км

Карта отелей и гостиниц, располагающихся рядом с аэропортом 183 км :

183 км Ханты-Мансийский автономный округ - Югра 61° 1' 55.9812" N, 69° 16' 5.2212" E
183 км Ханты-Мансийский автономный округ - Югра 61° 1' 55.9812" N, 69° 16' 5.2212" E
Код аэродрома ИКАО
HD7D
Код аэродрома RU
ХД7Д
Координаты
N61.03222° E069.26812°
Превышение над уровнем моря
29
Основная полоса
11/29
Курс магнитный
111,1/291,1
Длина основной ВПП
30
Ширина основной ВПП
10
Покрытие основной ВПП
Нетвёрдое (грунт)
Освещение ВПП
Нет
Тип: 
Вертодром
Класс аэродрома: 
Принадлежность: 
ГА
Статус: 
Недействующий
Сайт: 
E-mail аэродрома: 
Страна: 
Россия
Регион: 
Ханты-Мансийский автономный округ - Югра
Город: 
Дополнительная информация: 

Найти трансфер

С помощью этой формы Вы можете найти трансфер из аэропорта 183 км в город, аэропорт или вокзал:

Карта места

Javascript is required to view this map.

Погода в аэропортах:

Авиационная погода в аэропорту Бесовец

Регион: 
Погода METAR: 
ULPB 061030Z VRB01MPS 9000 -SN OVC013 M08/M10 Q1027 R19/490235 NOSIG RMK QFE767/1022
Время наблюдения
2021-12-06T10:30:00Z
Температура C
-8.0
Точка росы
-10.0
Направление ветра
0
Скорость ветра (узлы)
2
Метео видимость
5.59
Явления погоды
-SN
Условия полета
MVFR
Аэропорт подробнее: 

Авиационная погода в Кривом Роге

Регион: 
Погода METAR: 
UKDR 060700Z 14006MPS 8000 -RA OVC007 04/02 Q1014 NOSIG
Время наблюдения
2021-12-06T07:00:00Z
Температура C
4.0
Точка росы
2.0
Направление ветра
140
Скорость ветра (узлы)
12
Метео видимость
4.97
Явления погоды
-RA
Условия полета
IFR
Аэропорт подробнее: 

Авиационная погода в аэропорту Алыкель

Регион: 
Погода METAR: 
UOOO 061030Z 18013MPS 0250 R19/0800N SN BLSN OVC026 M25/M27 Q1001 R19/39//42 NOSIG RMK QFE735/0980
Время наблюдения
2021-12-06T10:30:00Z
Температура C
-25.0
Точка росы
-27.0
Направление ветра
180
Скорость ветра (узлы)
25
Метео видимость
0.16
Явления погоды
SN BLSN
Условия полета
LIFR
Аэропорт подробнее: 

Авиационная погода в Раменское

Регион: 
Погода METAR: 
UUBW 060800Z 14004MPS 6000 -SN OVC007 M04/M05 Q1021 R30/520240 NOSIG
Время наблюдения
2021-12-06T08:00:00Z
Температура C
-4.0
Точка росы
-5.0
Направление ветра
140
Скорость ветра (узлы)
8
Метео видимость
3.73
Явления погоды
-SN
Условия полета
IFR
Аэропорт подробнее: